sensor_id;sensor_type;location;lat;lon;timestamp;P1;durP1;ratioP1;P2;durP2;ratioP2
69213;SDS011;56325;47.030;18.518;2023-06-22T00:00:03;6.50;;;5.93;;
69213;SDS011;56325;47.030;18.518;2023-06-22T00:02:43;6.65;;;6.15;;
69213;SDS011;56325;47.030;18.518;2023-06-22T00:05:18;8.68;;;5.65;;
69213;SDS011;56325;47.030;18.518;2023-06-22T00:07:54;6.30;;;5.47;;
69213;SDS011;56325;47.030;18.518;2023-06-22T05:34:42;8.98;;;3.95;;
69213;SDS011;56325;47.030;18.518;2023-06-22T05:37:17;11.93;;;4.05;;
69213;SDS011;56325;47.030;18.518;2023-06-22T05:39:52;26.85;;;5.03;;
69213;SDS011;56325;47.030;18.518;2023-06-22T05:42:28;9.45;;;4.22;;
69213;SDS011;56325;47.030;18.518;2023-06-22T05:45:02;9.65;;;4.80;;
69213;SDS011;56325;47.030;18.518;2023-06-22T05:47:38;10.10;;;4.30;;
69213;SDS011;56325;47.030;18.518;2023-06-22T05:50:14;9.30;;;4.20;;
69213;SDS011;56325;47.030;18.518;2023-06-22T05:52:48;16.23;;;4.32;;
69213;SDS011;56325;47.030;18.518;2023-06-22T05:55:23;9.10;;;4.25;;
69213;SDS011;56325;47.030;18.518;2023-06-22T05:57:58;10.23;;;4.82;;
69213;SDS011;56325;47.030;18.518;2023-06-22T06:03:16;12.80;;;4.03;;
69213;SDS011;56325;47.030;18.518;2023-06-22T06:05:51;13.62;;;4.87;;
69213;SDS011;56325;47.030;18.518;2023-06-22T06:08:26;10.30;;;4.35;;
69213;SDS011;56325;47.030;18.518;2023-06-22T06:11:01;4.78;;;3.75;;
69213;SDS011;56325;47.030;18.518;2023-06-22T06:13:35;7.00;;;4.47;;
69213;SDS011;56325;47.030;18.518;2023-06-22T06:16:10;4.35;;;3.72;;
69213;SDS011;56325;47.030;18.518;2023-06-22T06:18:45;11.63;;;3.95;;
69213;SDS011;56325;47.030;18.518;2023-06-22T06:21:21;6.97;;;3.85;;
69213;SDS011;56325;47.030;18.518;2023-06-22T06:23:56;13.05;;;4.57;;
69213;SDS011;56325;47.030;18.518;2023-06-22T06:26:31;4.55;;;4.10;;
69213;SDS011;56325;47.030;18.518;2023-06-22T06:29:08;8.32;;;4.68;;
69213;SDS011;56325;47.030;18.518;2023-06-22T06:31:43;24.23;;;5.47;;
69213;SDS011;56325;47.030;18.518;2023-06-22T06:34:19;6.55;;;4.93;;
69213;SDS011;56325;47.030;18.518;2023-06-22T06:36:53;5.18;;;4.05;;
69213;SDS011;56325;47.030;18.518;2023-06-22T06:39:28;4.85;;;4.07;;
69213;SDS011;56325;47.030;18.518;2023-06-22T06:42:03;5.95;;;4.18;;
69213;SDS011;56325;47.030;18.518;2023-06-22T06:44:39;5.12;;;4.05;;
69213;SDS011;56325;47.030;18.518;2023-06-22T06:47:14;5.37;;;4.32;;
69213;SDS011;56325;47.030;18.518;2023-06-22T06:49:51;6.22;;;4.57;;
69213;SDS011;56325;47.030;18.518;2023-06-22T06:52:25;5.20;;;4.45;;
69213;SDS011;56325;47.030;18.518;2023-06-22T06:55:00;38.17;;;6.28;;
69213;SDS011;56325;47.030;18.518;2023-06-22T06:57:36;9.07;;;4.47;;
69213;SDS011;56325;47.030;18.518;2023-06-22T07:00:11;4.40;;;4.00;;
69213;SDS011;56325;47.030;18.518;2023-06-22T07:02:48;6.30;;;4.60;;
69213;SDS011;56325;47.030;18.518;2023-06-22T07:05:24;21.30;;;4.95;;
69213;SDS011;56325;47.030;18.518;2023-06-22T07:07:58;8.05;;;4.65;;
69213;SDS011;56325;47.030;18.518;2023-06-22T07:10:33;4.37;;;4.18;;
69213;SDS011;56325;47.030;18.518;2023-06-22T07:13:08;5.00;;;4.50;;
69213;SDS011;56325;47.030;18.518;2023-06-22T07:15:42;8.90;;;4.68;;
69213;SDS011;56325;47.030;18.518;2023-06-22T07:18:17;11.85;;;4.90;;
69213;SDS011;56325;47.030;18.518;2023-06-22T07:20:53;4.60;;;4.18;;
69213;SDS011;56325;47.030;18.518;2023-06-22T07:23:27;9.98;;;4.70;;
69213;SDS011;56325;47.030;18.518;2023-06-22T07:26:02;9.00;;;4.35;;
69213;SDS011;56325;47.030;18.518;2023-06-22T07:28:39;6.97;;;4.43;;
69213;SDS011;56325;47.030;18.518;2023-06-22T07:31:13;6.22;;;4.22;;
69213;SDS011;56325;47.030;18.518;2023-06-22T07:33:48;14.00;;;4.43;;
69213;SDS011;56325;47.030;18.518;2023-06-22T07:36:24;7.10;;;4.90;;
69213;SDS011;56325;47.030;18.518;2023-06-22T07:38:59;6.00;;;4.80;;
69213;SDS011;56325;47.030;18.518;2023-06-22T07:41:33;10.88;;;5.05;;
69213;SDS011;56325;47.030;18.518;2023-06-22T07:44:08;9.73;;;4.53;;
69213;SDS011;56325;47.030;18.518;2023-06-22T07:46:42;5.90;;;4.35;;
69213;SDS011;56325;47.030;18.518;2023-06-22T07:49:17;4.97;;;4.62;;
69213;SDS011;56325;47.030;18.518;2023-06-22T07:51:53;5.45;;;4.87;;
69213;SDS011;56325;47.030;18.518;2023-06-22T07:54:28;8.48;;;4.70;;
69213;SDS011;56325;47.030;18.518;2023-06-22T07:57:02;5.35;;;4.93;;
69213;SDS011;56325;47.030;18.518;2023-06-22T07:59:38;4.97;;;4.55;;
69213;SDS011;56325;47.030;18.518;2023-06-22T08:02:12;5.18;;;4.68;;
69213;SDS011;56325;47.030;18.518;2023-06-22T08:04:47;11.80;;;5.03;;
69213;SDS011;56325;47.030;18.518;2023-06-22T08:07:23;10.38;;;5.20;;
69213;SDS011;56325;47.030;18.518;2023-06-22T08:09:57;5.07;;;4.25;;
69213;SDS011;56325;47.030;18.518;2023-06-22T08:12:32;8.23;;;4.95;;
69213;SDS011;56325;47.030;18.518;2023-06-22T08:15:07;10.60;;;4.97;;
69213;SDS011;56325;47.030;18.518;2023-06-22T08:17:43;4.47;;;4.28;;
69213;SDS011;56325;47.030;18.518;2023-06-22T08:20:18;6.47;;;5.07;;
69213;SDS011;56325;47.030;18.518;2023-06-22T08:22:55;5.80;;;5.20;;
69213;SDS011;56325;47.030;18.518;2023-06-22T08:25:31;5.57;;;5.12;;
69213;SDS011;56325;47.030;18.518;2023-06-22T08:28:05;7.90;;;4.80;;
69213;SDS011;56325;47.030;18.518;2023-06-22T08:30:40;8.00;;;4.80;;
69213;SDS011;56325;47.030;18.518;2023-06-22T08:33:14;6.30;;;5.20;;
69213;SDS011;56325;47.030;18.518;2023-06-22T08:35:59;14.05;;;5.35;;
69213;SDS011;56325;47.030;18.518;2023-06-22T08:38:35;4.90;;;4.57;;
69213;SDS011;56325;47.030;18.518;2023-06-22T08:41:10;7.97;;;4.80;;
69213;SDS011;56325;47.030;18.518;2023-06-22T08:43:44;5.03;;;4.62;;
69213;SDS011;56325;47.030;18.518;2023-06-22T08:46:19;5.47;;;4.50;;
69213;SDS011;56325;47.030;18.518;2023-06-22T08:48:55;8.98;;;4.97;;
69213;SDS011;56325;47.030;18.518;2023-06-22T08:51:31;4.82;;;4.50;;
69213;SDS011;56325;47.030;18.518;2023-06-22T08:54:07;5.55;;;4.82;;
69213;SDS011;56325;47.030;18.518;2023-06-22T08:56:41;5.10;;;4.70;;
69213;SDS011;56325;47.030;18.518;2023-06-22T08:59:16;10.05;;;5.18;;
69213;SDS011;56325;47.030;18.518;2023-06-22T09:01:51;5.87;;;5.47;;
69213;SDS011;56325;47.030;18.518;2023-06-22T09:04:29;11.77;;;5.43;;
69213;SDS011;56325;47.030;18.518;2023-06-22T09:07:07;16.35;;;5.40;;
69213;SDS011;56325;47.030;18.518;2023-06-22T09:09:43;11.12;;;4.75;;
69213;SDS011;56325;47.030;18.518;2023-06-22T09:12:19;8.63;;;4.87;;
69213;SDS011;56325;47.030;18.518;2023-06-22T09:14:58;5.43;;;4.85;;
69213;SDS011;56325;47.030;18.518;2023-06-22T09:17:33;10.07;;;5.10;;
69213;SDS011;56325;47.030;18.518;2023-06-22T09:20:09;9.70;;;5.18;;
69213;SDS011;56325;47.030;18.518;2023-06-22T09:22:45;7.65;;;4.72;;
69213;SDS011;56325;47.030;18.518;2023-06-22T09:25:21;15.07;;;5.28;;
69213;SDS011;56325;47.030;18.518;2023-06-22T09:27:56;7.53;;;5.07;;
69213;SDS011;56325;47.030;18.518;2023-06-22T09:30:30;5.78;;;5.37;;
69213;SDS011;56325;47.030;18.518;2023-06-22T09:33:05;7.00;;;4.50;;
69213;SDS011;56325;47.030;18.518;2023-06-22T09:35:40;7.50;;;5.07;;
69213;SDS011;56325;47.030;18.518;2023-06-22T09:38:14;8.18;;;4.87;;
69213;SDS011;56325;47.030;18.518;2023-06-22T09:40:50;6.95;;;4.85;;
69213;SDS011;56325;47.030;18.518;2023-06-22T09:43:25;5.65;;;5.15;;
69213;SDS011;56325;47.030;18.518;2023-06-22T09:45:59;6.50;;;4.87;;
69213;SDS011;56325;47.030;18.518;2023-06-22T09:48:35;14.38;;;5.25;;
69213;SDS011;56325;47.030;18.518;2023-06-22T09:51:12;7.20;;;4.80;;
69213;SDS011;56325;47.030;18.518;2023-06-22T09:53:49;6.70;;;5.28;;
69213;SDS011;56325;47.030;18.518;2023-06-22T09:56:26;4.93;;;4.53;;
69213;SDS011;56325;47.030;18.518;2023-06-22T09:59:02;5.55;;;5.05;;
69213;SDS011;56325;47.030;18.518;2023-06-22T10:01:50;5.87;;;5.35;;
69213;SDS011;56325;47.030;18.518;2023-06-22T10:04:24;5.10;;;4.70;;
69213;SDS011;56325;47.030;18.518;2023-06-22T10:07:00;8.23;;;4.65;;
69213;SDS011;56325;47.030;18.518;2023-06-22T10:09:34;6.75;;;4.85;;
69213;SDS011;56325;47.030;18.518;2023-06-22T10:12:10;7.28;;;5.20;;
69213;SDS011;56325;47.030;18.518;2023-06-22T10:14:45;5.50;;;5.18;;
69213;SDS011;56325;47.030;18.518;2023-06-22T10:17:20;7.80;;;5.22;;
69213;SDS011;56325;47.030;18.518;2023-06-22T10:19:55;5.62;;;5.05;;
69213;SDS011;56325;47.030;18.518;2023-06-22T10:22:29;7.40;;;4.68;;
69213;SDS011;56325;47.030;18.518;2023-06-22T10:25:05;5.45;;;4.95;;
69213;SDS011;56325;47.030;18.518;2023-06-22T10:27:41;4.85;;;4.62;;
69213;SDS011;56325;47.030;18.518;2023-06-22T10:30:17;5.25;;;4.90;;
69213;SDS011;56325;47.030;18.518;2023-06-22T10:32:51;6.82;;;5.37;;
69213;SDS011;56325;47.030;18.518;2023-06-22T10:35:26;9.43;;;5.00;;
69213;SDS011;56325;47.030;18.518;2023-06-22T10:38:01;5.07;;;4.70;;
69213;SDS011;56325;47.030;18.518;2023-06-22T10:40:35;11.73;;;5.22;;
69213;SDS011;56325;47.030;18.518;2023-06-22T10:43:13;7.35;;;5.30;;
69213;SDS011;56325;47.030;18.518;2023-06-22T10:45:48;6.18;;;4.70;;
69213;SDS011;56325;47.030;18.518;2023-06-22T10:48:22;11.88;;;4.85;;
69213;SDS011;56325;47.030;18.518;2023-06-22T10:50:57;7.78;;;5.05;;
69213;SDS011;56325;47.030;18.518;2023-06-22T10:53:31;6.62;;;4.57;;
69213;SDS011;56325;47.030;18.518;2023-06-22T10:56:06;6.93;;;5.18;;
69213;SDS011;56325;47.030;18.518;2023-06-22T10:58:42;7.78;;;4.87;;
69213;SDS011;56325;47.030;18.518;2023-06-22T11:01:18;5.20;;;4.78;;
69213;SDS011;56325;47.030;18.518;2023-06-22T11:06:42;8.23;;;4.90;;
69213;SDS011;56325;47.030;18.518;2023-06-22T11:09:16;5.43;;;4.93;;
69213;SDS011;56325;47.030;18.518;2023-06-22T11:12:00;5.10;;;4.65;;
69213;SDS011;56325;47.030;18.518;2023-06-22T11:14:36;17.98;;;5.45;;
69213;SDS011;56325;47.030;18.518;2023-06-22T11:17:10;6.28;;;5.30;;
69213;SDS011;56325;47.030;18.518;2023-06-22T11:19:45;5.00;;;4.80;;
69213;SDS011;56325;47.030;18.518;2023-06-22T11:22:20;7.68;;;5.35;;
69213;SDS011;56325;47.030;18.518;2023-06-22T11:24:54;6.07;;;5.55;;
69213;SDS011;56325;47.030;18.518;2023-06-22T11:27:29;4.85;;;4.55;;
69213;SDS011;56325;47.030;18.518;2023-06-22T11:30:06;7.75;;;5.00;;
69213;SDS011;56325;47.030;18.518;2023-06-22T11:32:41;4.90;;;4.70;;
69213;SDS011;56325;47.030;18.518;2023-06-22T11:35:16;8.80;;;4.78;;
69213;SDS011;56325;47.030;18.518;2023-06-22T11:37:50;5.65;;;5.15;;
69213;SDS011;56325;47.030;18.518;2023-06-22T11:40:25;8.48;;;5.07;;
69213;SDS011;56325;47.030;18.518;2023-06-22T11:43:00;6.43;;;5.00;;
69213;SDS011;56325;47.030;18.518;2023-06-22T11:45:36;5.35;;;4.82;;
69213;SDS011;56325;47.030;18.518;2023-06-22T11:48:11;7.37;;;5.35;;
69213;SDS011;56325;47.030;18.518;2023-06-22T11:50:45;5.32;;;4.90;;
69213;SDS011;56325;47.030;18.518;2023-06-22T11:53:20;7.35;;;4.70;;
69213;SDS011;56325;47.030;18.518;2023-06-22T11:55:55;4.87;;;4.60;;
69213;SDS011;56325;47.030;18.518;2023-06-22T11:58:30;5.65;;;5.03;;
69213;SDS011;56325;47.030;18.518;2023-06-22T12:01:06;5.62;;;5.15;;
69213;SDS011;56325;47.030;18.518;2023-06-22T12:03:41;7.50;;;5.12;;
69213;SDS011;56325;47.030;18.518;2023-06-22T12:06:17;46.22;;;6.35;;
69213;SDS011;56325;47.030;18.518;2023-06-22T12:08:52;5.80;;;5.25;;
69213;SDS011;56325;47.030;18.518;2023-06-22T12:11:26;5.28;;;4.90;;
69213;SDS011;56325;47.030;18.518;2023-06-22T12:14:01;7.60;;;5.45;;
69213;SDS011;56325;47.030;18.518;2023-06-22T12:16:37;5.32;;;4.93;;
69213;SDS011;56325;47.030;18.518;2023-06-22T12:19:12;5.80;;;4.68;;
69213;SDS011;56325;47.030;18.518;2023-06-22T12:21:46;4.75;;;4.35;;
69213;SDS011;56325;47.030;18.518;2023-06-22T12:24:21;6.03;;;5.25;;
69213;SDS011;56325;47.030;18.518;2023-06-22T12:26:55;9.85;;;4.80;;
69213;SDS011;56325;47.030;18.518;2023-06-22T12:29:30;5.12;;;4.72;;
69213;SDS011;56325;47.030;18.518;2023-06-22T12:32:06;5.05;;;4.65;;
69213;SDS011;56325;47.030;18.518;2023-06-22T12:34:41;5.18;;;4.47;;
69213;SDS011;56325;47.030;18.518;2023-06-22T12:37:17;5.07;;;4.72;;
69213;SDS011;56325;47.030;18.518;2023-06-22T12:39:52;6.40;;;4.87;;
69213;SDS011;56325;47.030;18.518;2023-06-22T12:42:28;7.00;;;4.70;;
69213;SDS011;56325;47.030;18.518;2023-06-22T12:45:03;4.65;;;3.75;;
69213;SDS011;56325;47.030;18.518;2023-06-22T12:47:39;5.57;;;4.87;;
69213;SDS011;56325;47.030;18.518;2023-06-22T12:50:14;4.70;;;4.10;;
69213;SDS011;56325;47.030;18.518;2023-06-22T12:52:49;8.35;;;4.85;;
69213;SDS011;56325;47.030;18.518;2023-06-22T12:55:23;4.97;;;4.57;;
69213;SDS011;56325;47.030;18.518;2023-06-22T12:57:58;4.90;;;4.50;;
69213;SDS011;56325;47.030;18.518;2023-06-22T13:00:32;5.15;;;4.82;;
69213;SDS011;56325;47.030;18.518;2023-06-22T13:03:08;6.90;;;4.72;;
69213;SDS011;56325;47.030;18.518;2023-06-22T13:05:43;5.90;;;4.37;;
69213;SDS011;56325;47.030;18.518;2023-06-22T13:08:17;5.53;;;4.20;;
69213;SDS011;56325;47.030;18.518;2023-06-22T13:10:53;5.37;;;4.47;;
69213;SDS011;56325;47.030;18.518;2023-06-22T13:13:29;4.45;;;4.15;;
69213;SDS011;56325;47.030;18.518;2023-06-22T13:16:04;4.22;;;4.12;;
69213;SDS011;56325;47.030;18.518;2023-06-22T13:18:39;4.55;;;4.35;;
69213;SDS011;56325;47.030;18.518;2023-06-22T13:21:14;8.10;;;4.03;;
69213;SDS011;56325;47.030;18.518;2023-06-22T13:23:49;4.15;;;3.85;;
69213;SDS011;56325;47.030;18.518;2023-06-22T13:26:24;3.95;;;3.60;;
69213;SDS011;56325;47.030;18.518;2023-06-22T13:28:58;4.00;;;3.70;;
69213;SDS011;56325;47.030;18.518;2023-06-22T13:31:33;4.62;;;4.25;;
69213;SDS011;56325;47.030;18.518;2023-06-22T13:34:09;6.55;;;4.10;;
69213;SDS011;56325;47.030;18.518;2023-06-22T13:36:44;7.85;;;4.18;;
69213;SDS011;56325;47.030;18.518;2023-06-22T13:39:18;8.52;;;3.90;;
69213;SDS011;56325;47.030;18.518;2023-06-22T13:41:53;6.22;;;3.92;;
69213;SDS011;56325;47.030;18.518;2023-06-22T13:44:27;8.93;;;4.35;;
69213;SDS011;56325;47.030;18.518;2023-06-22T13:47:02;5.57;;;3.62;;
69213;SDS011;56325;47.030;18.518;2023-06-22T13:49:39;6.00;;;3.70;;
69213;SDS011;56325;47.030;18.518;2023-06-22T13:52:14;5.75;;;3.83;;
69213;SDS011;56325;47.030;18.518;2023-06-22T13:54:48;13.27;;;4.07;;
69213;SDS011;56325;47.030;18.518;2023-06-22T13:57:23;6.30;;;3.83;;
69213;SDS011;56325;47.030;18.518;2023-06-22T13:59:57;8.52;;;4.68;;
69213;SDS011;56325;47.030;18.518;2023-06-22T14:02:57;9.98;;;4.30;;
69213;SDS011;56325;47.030;18.518;2023-06-22T14:05:33;6.45;;;4.22;;
69213;SDS011;56325;47.030;18.518;2023-06-22T14:08:07;4.60;;;4.20;;
69213;SDS011;56325;47.030;18.518;2023-06-22T14:11:02;10.20;;;4.35;;
69213;SDS011;56325;47.030;18.518;2023-06-22T14:13:36;11.12;;;4.87;;
69213;SDS011;56325;47.030;18.518;2023-06-22T14:16:11;8.50;;;4.30;;
69213;SDS011;56325;47.030;18.518;2023-06-22T14:18:47;4.62;;;4.15;;
69213;SDS011;56325;47.030;18.518;2023-06-22T14:21:21;10.50;;;4.40;;
69213;SDS011;56325;47.030;18.518;2023-06-22T14:23:56;11.52;;;5.12;;
69213;SDS011;56325;47.030;18.518;2023-06-22T14:26:30;9.15;;;3.92;;
69213;SDS011;56325;47.030;18.518;2023-06-22T14:29:05;6.82;;;4.07;;
69213;SDS011;56325;47.030;18.518;2023-06-22T14:31:40;6.68;;;3.55;;
69213;SDS011;56325;47.030;18.518;2023-06-22T14:34:16;8.43;;;3.90;;
69213;SDS011;56325;47.030;18.518;2023-06-22T14:36:50;9.30;;;3.65;;
69213;SDS011;56325;47.030;18.518;2023-06-22T14:39:25;4.95;;;3.83;;
69213;SDS011;56325;47.030;18.518;2023-06-22T14:41:59;31.48;;;4.68;;
69213;SDS011;56325;47.030;18.518;2023-06-22T14:44:35;4.28;;;3.78;;
69213;SDS011;56325;47.030;18.518;2023-06-22T14:47:10;5.32;;;4.18;;
69213;SDS011;56325;47.030;18.518;2023-06-22T14:49:46;5.93;;;3.62;;
69213;SDS011;56325;47.030;18.518;2023-06-22T14:52:23;9.63;;;4.18;;
69213;SDS011;56325;47.030;18.518;2023-06-22T14:54:58;4.15;;;3.08;;
69213;SDS011;56325;47.030;18.518;2023-06-22T14:57:32;3.90;;;3.12;;
69213;SDS011;56325;47.030;18.518;2023-06-22T15:00:07;8.65;;;3.47;;
69213;SDS011;56325;47.030;18.518;2023-06-22T15:02:42;6.95;;;3.67;;
69213;SDS011;56325;47.030;18.518;2023-06-22T15:05:18;13.32;;;3.90;;
69213;SDS011;56325;47.030;18.518;2023-06-22T15:07:53;8.38;;;3.75;;
69213;SDS011;56325;47.030;18.518;2023-06-22T15:10:27;8.93;;;3.50;;
69213;SDS011;56325;47.030;18.518;2023-06-22T15:13:02;6.85;;;3.85;;
69213;SDS011;56325;47.030;18.518;2023-06-22T15:15:37;7.82;;;4.07;;
69213;SDS011;56325;47.030;18.518;2023-06-22T15:18:12;13.20;;;3.62;;
69213;SDS011;56325;47.030;18.518;2023-06-22T15:20:48;5.62;;;3.90;;
69213;SDS011;56325;47.030;18.518;2023-06-22T15:23:23;5.82;;;3.70;;
69213;SDS011;56325;47.030;18.518;2023-06-22T15:25:58;5.62;;;3.70;;
69213;SDS011;56325;47.030;18.518;2023-06-22T15:28:33;6.90;;;3.83;;
69213;SDS011;56325;47.030;18.518;2023-06-22T15:31:10;10.85;;;4.00;;
69213;SDS011;56325;47.030;18.518;2023-06-22T15:33:44;7.60;;;3.70;;
69213;SDS011;56325;47.030;18.518;2023-06-22T15:36:20;4.00;;;3.67;;
69213;SDS011;56325;47.030;18.518;2023-06-22T15:38:55;12.85;;;3.92;;
69213;SDS011;56325;47.030;18.518;2023-06-22T15:41:29;11.18;;;4.70;;
69213;SDS011;56325;47.030;18.518;2023-06-22T15:44:05;4.97;;;4.18;;
69213;SDS011;56325;47.030;18.518;2023-06-22T15:46:39;5.57;;;3.72;;
69213;SDS011;56325;47.030;18.518;2023-06-22T15:49:14;6.55;;;3.85;;
69213;SDS011;56325;47.030;18.518;2023-06-22T15:51:50;5.25;;;3.87;;
69213;SDS011;56325;47.030;18.518;2023-06-22T15:54:25;7.03;;;3.78;;
69213;SDS011;56325;47.030;18.518;2023-06-22T15:56:59;8.65;;;4.60;;
69213;SDS011;56325;47.030;18.518;2023-06-22T15:59:34;5.80;;;4.37;;
69213;SDS011;56325;47.030;18.518;2023-06-22T16:02:08;10.20;;;4.00;;
69213;SDS011;56325;47.030;18.518;2023-06-22T16:04:43;9.68;;;4.18;;
69213;SDS011;56325;47.030;18.518;2023-06-22T16:07:19;8.73;;;4.15;;
69213;SDS011;56325;47.030;18.518;2023-06-22T16:09:54;8.00;;;3.83;;
69213;SDS011;56325;47.030;18.518;2023-06-22T16:12:28;4.87;;;4.47;;
69213;SDS011;56325;47.030;18.518;2023-06-22T16:15:03;14.27;;;4.15;;
69213;SDS011;56325;47.030;18.518;2023-06-22T16:17:39;6.65;;;4.12;;
69213;SDS011;56325;47.030;18.518;2023-06-22T16:20:14;6.60;;;4.20;;
69213;SDS011;56325;47.030;18.518;2023-06-22T16:22:51;6.07;;;4.30;;
69213;SDS011;56325;47.030;18.518;2023-06-22T16:25:29;6.50;;;4.43;;
69213;SDS011;56325;47.030;18.518;2023-06-22T16:28:04;5.70;;;4.18;;
69213;SDS011;56325;47.030;18.518;2023-06-22T16:30:39;10.52;;;4.07;;
69213;SDS011;56325;47.030;18.518;2023-06-22T16:33:14;13.32;;;4.68;;
69213;SDS011;56325;47.030;18.518;2023-06-22T16:35:48;8.40;;;4.45;;
69213;SDS011;56325;47.030;18.518;2023-06-22T16:38:24;12.40;;;3.80;;
69213;SDS011;56325;47.030;18.518;2023-06-22T16:40:59;10.82;;;3.95;;
69213;SDS011;56325;47.030;18.518;2023-06-22T16:43:33;4.32;;;4.03;;
69213;SDS011;56325;47.030;18.518;2023-06-22T16:46:08;5.62;;;4.55;;
69213;SDS011;56325;47.030;18.518;2023-06-22T16:48:45;16.95;;;4.60;;
69213;SDS011;56325;47.030;18.518;2023-06-22T16:51:25;10.13;;;4.30;;
69213;SDS011;56325;47.030;18.518;2023-06-22T16:54:01;7.22;;;4.70;;
69213;SDS011;56325;47.030;18.518;2023-06-22T16:56:36;9.73;;;5.07;;
69213;SDS011;56325;47.030;18.518;2023-06-22T16:59:10;12.10;;;5.18;;
69213;SDS011;56325;47.030;18.518;2023-06-22T17:01:47;8.30;;;4.80;;
69213;SDS011;56325;47.030;18.518;2023-06-22T17:04:25;10.13;;;4.60;;
69213;SDS011;56325;47.030;18.518;2023-06-22T17:07:04;10.73;;;4.50;;
69213;SDS011;56325;47.030;18.518;2023-06-22T17:09:52;4.85;;;3.85;;
69213;SDS011;56325;47.030;18.518;2023-06-22T17:12:29;13.73;;;4.75;;
69213;SDS011;56325;47.030;18.518;2023-06-22T17:15:04;4.85;;;4.20;;
69213;SDS011;56325;47.030;18.518;2023-06-22T17:17:40;10.00;;;4.80;;
69213;SDS011;56325;47.030;18.518;2023-06-22T17:20:16;9.18;;;4.43;;
69213;SDS011;56325;47.030;18.518;2023-06-22T17:22:50;12.98;;;3.97;;
69213;SDS011;56325;47.030;18.518;2023-06-22T17:25:28;7.37;;;4.37;;
69213;SDS011;56325;47.030;18.518;2023-06-22T17:28:03;11.75;;;4.70;;
69213;SDS011;56325;47.030;18.518;2023-06-22T17:30:38;4.35;;;4.05;;
69213;SDS011;56325;47.030;18.518;2023-06-22T17:33:13;6.35;;;4.32;;
69213;SDS011;56325;47.030;18.518;2023-06-22T17:35:48;13.48;;;4.55;;
69213;SDS011;56325;47.030;18.518;2023-06-22T17:38:24;4.65;;;4.25;;
69213;SDS011;56325;47.030;18.518;2023-06-22T17:41:01;9.10;;;4.72;;
69213;SDS011;56325;47.030;18.518;2023-06-22T17:43:45;12.65;;;4.62;;
69213;SDS011;56325;47.030;18.518;2023-06-22T17:46:20;9.13;;;4.00;;
69213;SDS011;56325;47.030;18.518;2023-06-22T17:48:55;19.30;;;4.22;;
69213;SDS011;56325;47.030;18.518;2023-06-22T17:51:29;17.33;;;4.43;;
69213;SDS011;56325;47.030;18.518;2023-06-22T17:54:04;7.85;;;4.25;;
69213;SDS011;56325;47.030;18.518;2023-06-22T17:56:40;10.88;;;4.68;;
69213;SDS011;56325;47.030;18.518;2023-06-22T17:59:15;9.68;;;5.05;;
69213;SDS011;56325;47.030;18.518;2023-06-22T18:01:50;9.60;;;4.57;;
69213;SDS011;56325;47.030;18.518;2023-06-22T18:04:25;14.77;;;4.40;;
69213;SDS011;56325;47.030;18.518;2023-06-22T18:07:00;16.15;;;4.87;;
69213;SDS011;56325;47.030;18.518;2023-06-22T18:09:36;16.02;;;4.60;;
69213;SDS011;56325;47.030;18.518;2023-06-22T18:12:14;11.73;;;4.87;;
69213;SDS011;56325;47.030;18.518;2023-06-22T18:14:49;14.32;;;4.30;;
69213;SDS011;56325;47.030;18.518;2023-06-22T18:17:24;8.43;;;4.75;;
69213;SDS011;56325;47.030;18.518;2023-06-22T18:19:59;10.95;;;4.78;;
69213;SDS011;56325;47.030;18.518;2023-06-22T18:22:36;8.68;;;4.35;;
69213;SDS011;56325;47.030;18.518;2023-06-22T18:25:14;17.37;;;4.90;;
69213;SDS011;56325;47.030;18.518;2023-06-22T18:27:51;12.43;;;5.68;;
69213;SDS011;56325;47.030;18.518;2023-06-22T18:30:26;8.27;;;4.85;;
69213;SDS011;56325;47.030;18.518;2023-06-22T18:33:02;11.88;;;4.60;;
69213;SDS011;56325;47.030;18.518;2023-06-22T18:35:37;13.32;;;5.43;;
69213;SDS011;56325;47.030;18.518;2023-06-22T18:38:12;21.92;;;5.12;;
69213;SDS011;56325;47.030;18.518;2023-06-22T18:40:48;10.15;;;5.53;;
69213;SDS011;56325;47.030;18.518;2023-06-22T18:43:25;9.88;;;5.53;;
69213;SDS011;56325;47.030;18.518;2023-06-22T18:46:14;15.63;;;5.20;;
69213;SDS011;56325;47.030;18.518;2023-06-22T18:49:16;6.35;;;5.05;;
69213;SDS011;56325;47.030;18.518;2023-06-22T18:51:54;14.18;;;5.40;;
69213;SDS011;56325;47.030;18.518;2023-06-22T18:54:32;18.37;;;5.77;;
69213;SDS011;56325;47.030;18.518;2023-06-22T18:57:12;19.60;;;5.63;;
69213;SDS011;56325;47.030;18.518;2023-06-22T18:59:49;15.27;;;5.47;;
69213;SDS011;56325;47.030;18.518;2023-06-22T19:02:43;13.90;;;5.20;;
69213;SDS011;56325;47.030;18.518;2023-06-22T19:05:37;10.23;;;5.35;;
69213;SDS011;56325;47.030;18.518;2023-06-22T19:08:13;6.75;;;5.05;;
69213;SDS011;56325;47.030;18.518;2023-06-22T19:10:47;17.27;;;5.80;;
69213;SDS011;56325;47.030;18.518;2023-06-22T19:13:26;9.45;;;5.97;;
69213;SDS011;56325;47.030;18.518;2023-06-22T19:16:05;10.50;;;5.28;;
69213;SDS011;56325;47.030;18.518;2023-06-22T19:18:43;6.20;;;5.70;;
69213;SDS011;56325;47.030;18.518;2023-06-22T19:21:24;8.05;;;4.90;;
69213;SDS011;56325;47.030;18.518;2023-06-22T19:23:58;7.82;;;4.97;;
69213;SDS011;56325;47.030;18.518;2023-06-22T19:26:33;6.80;;;5.43;;
69213;SDS011;56325;47.030;18.518;2023-06-22T19:29:14;8.73;;;6.22;;
69213;SDS011;56325;47.030;18.518;2023-06-22T19:31:51;6.53;;;4.82;;
69213;SDS011;56325;47.030;18.518;2023-06-22T19:34:26;6.07;;;5.03;;
69213;SDS011;56325;47.030;18.518;2023-06-22T19:37:02;5.78;;;5.22;;
69213;SDS011;56325;47.030;18.518;2023-06-22T19:39:47;12.50;;;6.22;;
69213;SDS011;56325;47.030;18.518;2023-06-22T19:42:30;14.40;;;5.20;;
69213;SDS011;56325;47.030;18.518;2023-06-22T19:45:05;10.68;;;5.47;;
69213;SDS011;56325;47.030;18.518;2023-06-22T19:47:42;18.73;;;5.75;;
69213;SDS011;56325;47.030;18.518;2023-06-22T19:50:19;11.82;;;5.62;;
69213;SDS011;56325;47.030;18.518;2023-06-22T19:52:57;6.32;;;5.32;;
69213;SDS011;56325;47.030;18.518;2023-06-22T19:55:32;6.12;;;5.60;;
69213;SDS011;56325;47.030;18.518;2023-06-22T19:58:08;11.60;;;5.47;;
69213;SDS011;56325;47.030;18.518;2023-06-22T20:00:44;8.50;;;5.43;;
69213;SDS011;56325;47.030;18.518;2023-06-22T20:03:25;7.28;;;5.15;;
69213;SDS011;56325;47.030;18.518;2023-06-22T20:06:08;6.53;;;5.03;;
69213;SDS011;56325;47.030;18.518;2023-06-22T20:08:44;5.60;;;5.10;;
69213;SDS011;56325;47.030;18.518;2023-06-22T20:11:23;6.75;;;5.65;;
69213;SDS011;56325;47.030;18.518;2023-06-22T20:13:59;9.70;;;5.30;;
69213;SDS011;56325;47.030;18.518;2023-06-22T20:16:37;10.05;;;5.78;;
69213;SDS011;56325;47.030;18.518;2023-06-22T20:19:31;10.20;;;5.10;;
69213;SDS011;56325;47.030;18.518;2023-06-22T20:22:08;6.62;;;5.50;;
69213;SDS011;56325;47.030;18.518;2023-06-22T20:24:44;9.15;;;5.50;;
69213;SDS011;56325;47.030;18.518;2023-06-22T20:27:19;6.57;;;4.72;;
69213;SDS011;56325;47.030;18.518;2023-06-22T20:29:54;6.60;;;5.07;;
69213;SDS011;56325;47.030;18.518;2023-06-22T20:32:28;4.97;;;4.57;;
69213;SDS011;56325;47.030;18.518;2023-06-22T20:35:07;11.30;;;4.68;;
69213;SDS011;56325;47.030;18.518;2023-06-22T20:37:44;5.53;;;5.05;;
69213;SDS011;56325;47.030;18.518;2023-06-22T20:40:19;7.82;;;5.43;;
69213;SDS011;56325;47.030;18.518;2023-06-22T20:43:00;8.98;;;5.25;;
69213;SDS011;56325;47.030;18.518;2023-06-22T20:45:35;9.13;;;6.12;;
69213;SDS011;56325;47.030;18.518;2023-06-22T20:48:12;8.23;;;5.37;;
69213;SDS011;56325;47.030;18.518;2023-06-22T20:50:51;5.97;;;5.47;;